sensor_id;sensor_type;location;lat;lon;timestamp;pressure;altitude;pressure_sealevel;temperature;humidity
18509;BME280;9383;50.928;12.116;2022-11-04T00:02:21;97612.75;;;8.51;100.00
18509;BME280;9383;50.928;12.116;2022-11-04T00:04:48;97609.94;;;8.54;100.00
18509;BME280;9383;50.928;12.116;2022-11-04T00:07:15;97608.84;;;8.58;100.00
18509;BME280;9383;50.928;12.116;2022-11-04T00:10:00;97602.50;;;8.63;100.00
18509;BME280;9383;50.928;12.116;2022-11-04T00:12:27;97601.34;;;8.68;100.00
18509;BME280;9383;50.928;12.116;2022-11-04T00:14:54;97609.97;;;8.72;100.00
18509;BME280;9383;50.928;12.116;2022-11-04T00:17:40;97621.19;;;8.77;100.00
18509;BME280;9383;50.928;12.116;2022-11-04T00:20:08;97627.09;;;8.82;100.00
18509;BME280;9383;50.928;12.116;2022-11-04T00:22:53;97632.09;;;8.89;100.00
18509;BME280;9383;50.928;12.116;2022-11-04T00:25:39;97640.63;;;8.94;100.00
18509;BME280;9383;50.928;12.116;2022-11-04T00:28:24;97650.91;;;9.00;100.00
18509;BME280;9383;50.928;12.116;2022-11-04T00:31:10;97644.47;;;9.06;100.00
18509;BME280;9383;50.928;12.116;2022-11-04T00:33:57;97648.50;;;9.13;100.00
18509;BME280;9383;50.928;12.116;2022-11-04T00:36:25;97643.75;;;9.20;100.00
18509;BME280;9383;50.928;12.116;2022-11-04T00:38:52;97633.88;;;9.23;100.00
18509;BME280;9383;50.928;12.116;2022-11-04T00:41:19;97620.44;;;9.28;100.00
18509;BME280;9383;50.928;12.116;2022-11-04T00:44:02;97641.34;;;9.33;100.00
18509;BME280;9383;50.928;12.116;2022-11-04T00:46:31;97641.13;;;9.37;100.00
18509;BME280;9383;50.928;12.116;2022-11-04T00:48:59;97640.03;;;9.41;100.00
18509;BME280;9383;50.928;12.116;2022-11-04T00:51:26;97646.03;;;9.45;100.00
18509;BME280;9383;50.928;12.116;2022-11-04T00:53:53;97647.63;;;9.48;100.00
18509;BME280;9383;50.928;12.116;2022-11-04T00:56:20;97640.50;;;9.50;100.00
18509;BME280;9383;50.928;12.116;2022-11-04T00:58:47;97646.56;;;9.52;100.00
18509;BME280;9383;50.928;12.116;2022-11-04T01:01:17;97647.31;;;9.54;100.00
18509;BME280;9383;50.928;12.116;2022-11-04T01:03:46;97650.69;;;9.57;100.00
18509;BME280;9383;50.928;12.116;2022-11-04T01:06:13;97653.84;;;9.64;100.00
18509;BME280;9383;50.928;12.116;2022-11-04T01:08:40;97658.81;;;9.70;100.00
18509;BME280;9383;50.928;12.116;2022-11-04T01:11:08;97664.66;;;9.77;100.00
18509;BME280;9383;50.928;12.116;2022-11-04T01:13:36;97667.81;;;9.84;100.00
18509;BME280;9383;50.928;12.116;2022-11-04T01:16:05;97666.75;;;9.88;100.00
18509;BME280;9383;50.928;12.116;2022-11-04T01:18:32;97657.75;;;9.91;99.62
18509;BME280;9383;50.928;12.116;2022-11-04T01:21:07;97644.47;;;9.92;99.52
18509;BME280;9383;50.928;12.116;2022-11-04T01:23:34;97658.41;;;9.96;99.33
18509;BME280;9383;50.928;12.116;2022-11-04T01:26:08;97654.81;;;9.97;99.37
18509;BME280;9383;50.928;12.116;2022-11-04T01:28:35;97655.56;;;9.99;99.02
18509;BME280;9383;50.928;12.116;2022-11-04T01:31:13;97653.69;;;10.01;98.86
18509;BME280;9383;50.928;12.116;2022-11-04T01:33:41;97660.63;;;10.04;99.05
18509;BME280;9383;50.928;12.116;2022-11-04T01:36:09;97657.81;;;10.07;98.81
18509;BME280;9383;50.928;12.116;2022-11-04T01:38:36;97652.44;;;10.08;98.61
18509;BME280;9383;50.928;12.116;2022-11-04T01:41:05;97650.56;;;10.10;98.46
18509;BME280;9383;50.928;12.116;2022-11-04T01:43:51;97654.03;;;10.11;98.52
18509;BME280;9383;50.928;12.116;2022-11-04T01:48:45;97650.38;;;10.13;98.27
18509;BME280;9383;50.928;12.116;2022-11-04T01:51:13;97649.44;;;10.14;98.13
18509;BME280;9383;50.928;12.116;2022-11-04T01:53:42;97649.44;;;10.14;98.29
18509;BME280;9383;50.928;12.116;2022-11-04T01:56:11;97638.03;;;10.14;98.20
18509;BME280;9383;50.928;12.116;2022-11-04T01:58:48;97646.03;;;10.12;98.15
18509;BME280;9383;50.928;12.116;2022-11-04T02:01:17;97642.53;;;10.12;98.13
18509;BME280;9383;50.928;12.116;2022-11-04T02:03:58;97646.03;;;10.12;98.05
18509;BME280;9383;50.928;12.116;2022-11-04T02:06:48;97646.03;;;10.12;98.25
18509;BME280;9383;50.928;12.116;2022-11-04T02:09:17;97647.75;;;10.13;98.24
18509;BME280;9383;50.928;12.116;2022-11-04T02:11:46;97658.16;;;10.17;99.05
18509;BME280;9383;50.928;12.116;2022-11-04T02:14:33;97648.44;;;10.17;98.80
18509;BME280;9383;50.928;12.116;2022-11-04T02:28:26;97641.94;;;10.23;98.82
18509;BME280;9383;50.928;12.116;2022-11-04T02:34:07;97643.66;;;10.24;99.09
18509;BME280;9383;50.928;12.116;2022-11-04T02:36:43;97639.22;;;10.24;99.79
18509;BME280;9383;50.928;12.116;2022-11-04T02:39:50;97632.06;;;10.26;100.00
18509;BME280;9383;50.928;12.116;2022-11-04T02:47:27;97622.75;;;10.35;100.00
18509;BME280;9383;50.928;12.116;2022-11-04T02:50:16;97630.59;;;10.37;100.00
18509;BME280;9383;50.928;12.116;2022-11-04T02:52:47;97634.03;;;10.39;100.00
18509;BME280;9383;50.928;12.116;2022-11-04T02:55:34;97629.53;;;10.41;99.88
18509;BME280;9383;50.928;12.116;2022-11-04T02:58:07;97621.56;;;10.41;100.00
18509;BME280;9383;50.928;12.116;2022-11-04T03:00:39;97617.03;;;10.43;100.00
18509;BME280;9383;50.928;12.116;2022-11-04T03:03:12;97614.22;;;10.46;100.00
18509;BME280;9383;50.928;12.116;2022-11-04T03:05:43;97618.50;;;10.49;100.00
18509;BME280;9383;50.928;12.116;2022-11-04T03:08:15;97612.25;;;10.50;100.00
18509;BME280;9383;50.928;12.116;2022-11-04T03:10:50;97616.59;;;10.51;99.80
18509;BME280;9383;50.928;12.116;2022-11-04T03:13:54;97641.31;;;10.51;99.79
18509;BME280;9383;50.928;12.116;2022-11-04T03:16:28;97639.44;;;10.53;99.88
18509;BME280;9383;50.928;12.116;2022-11-04T03:21:27;97654.41;;;10.54;99.77
18509;BME280;9383;50.928;12.116;2022-11-04T03:23:56;97651.75;;;10.54;99.69
18509;BME280;9383;50.928;12.116;2022-11-04T03:26:27;97656.16;;;10.54;99.64
18509;BME280;9383;50.928;12.116;2022-11-04T03:31:48;97658.75;;;10.55;99.97
18509;BME280;9383;50.928;12.116;2022-11-04T03:34:15;97662.34;;;10.54;100.00
18509;BME280;9383;50.928;12.116;2022-11-04T03:36:42;97669.41;;;10.54;100.00
18509;BME280;9383;50.928;12.116;2022-11-04T03:39:08;97678.16;;;10.56;100.00
18509;BME280;9383;50.928;12.116;2022-11-04T03:41:40;97697.56;;;10.57;100.00
18509;BME280;9383;50.928;12.116;2022-11-04T03:44:09;97696.72;;;10.56;100.00
18509;BME280;9383;50.928;12.116;2022-11-04T03:46:35;97702.84;;;10.57;100.00
18509;BME280;9383;50.928;12.116;2022-11-04T03:49:02;97705.44;;;10.58;100.00
18509;BME280;9383;50.928;12.116;2022-11-04T03:51:30;97709.03;;;10.57;100.00
18509;BME280;9383;50.928;12.116;2022-11-04T03:53:57;97700.88;;;10.60;100.00
18509;BME280;9383;50.928;12.116;2022-11-04T04:02:20;97706.25;;;10.59;100.00
18509;BME280;9383;50.928;12.116;2022-11-04T04:05:05;97707.03;;;10.61;100.00
18509;BME280;9383;50.928;12.116;2022-11-04T04:07:47;97709.69;;;10.61;100.00
18509;BME280;9383;50.928;12.116;2022-11-04T04:10:42;97705.25;;;10.61;100.00
18509;BME280;9383;50.928;12.116;2022-11-04T04:13:40;97714.97;;;10.61;100.00
18509;BME280;9383;50.928;12.116;2022-11-04T04:16:19;97719.38;;;10.62;100.00
18509;BME280;9383;50.928;12.116;2022-11-04T04:19:09;97717.56;;;10.62;100.00
18509;BME280;9383;50.928;12.116;2022-11-04T04:21:49;97711.50;;;10.60;100.00
18509;BME280;9383;50.928;12.116;2022-11-04T04:24:20;97714.16;;;10.60;100.00
18509;BME280;9383;50.928;12.116;2022-11-04T04:27:08;97717.72;;;10.59;100.00
18509;BME280;9383;50.928;12.116;2022-11-04T04:29:54;97723.97;;;10.58;100.00
18509;BME280;9383;50.928;12.116;2022-11-04T04:32:23;97720.56;;;10.56;100.00
18509;BME280;9383;50.928;12.116;2022-11-04T04:34:52;97730.28;;;10.55;100.00
18509;BME280;9383;50.928;12.116;2022-11-04T04:37:44;97725.94;;;10.54;100.00
18509;BME280;9383;50.928;12.116;2022-11-04T04:40:14;97729.41;;;10.55;100.00
18509;BME280;9383;50.928;12.116;2022-11-04T04:43:01;97738.41;;;10.52;100.00
18509;BME280;9383;50.928;12.116;2022-11-04T04:45:51;97736.59;;;10.53;100.00
18509;BME280;9383;50.928;12.116;2022-11-04T04:48:19;97735.84;;;10.51;100.00
18509;BME280;9383;50.928;12.116;2022-11-04T04:50:48;97737.66;;;10.50;100.00
18509;BME280;9383;50.928;12.116;2022-11-04T04:53:15;97746.53;;;10.49;100.00
18509;BME280;9383;50.928;12.116;2022-11-04T04:55:41;97747.38;;;10.50;100.00
18509;BME280;9383;50.928;12.116;2022-11-04T04:58:08;97729.78;;;10.49;100.00
18509;BME280;9383;50.928;12.116;2022-11-04T05:00:35;97736.84;;;10.48;100.00
18509;BME280;9383;50.928;12.116;2022-11-04T05:03:02;97735.13;;;10.47;100.00
18509;BME280;9383;50.928;12.116;2022-11-04T05:05:28;97743.09;;;10.47;100.00
18509;BME280;9383;50.928;12.116;2022-11-04T05:07:55;97743.25;;;10.44;100.00
18509;BME280;9383;50.928;12.116;2022-11-04T05:10:21;97740.59;;;10.44;100.00
18509;BME280;9383;50.928;12.116;2022-11-04T05:12:48;97760.09;;;10.43;100.00
18509;BME280;9383;50.928;12.116;2022-11-04T05:15:34;97754.03;;;10.41;100.00
18509;BME280;9383;50.928;12.116;2022-11-04T05:18:01;97750.47;;;10.40;100.00
18509;BME280;9383;50.928;12.116;2022-11-04T05:20:28;97752.28;;;10.40;100.00
18509;BME280;9383;50.928;12.116;2022-11-04T05:22:55;97746.22;;;10.38;100.00
18509;BME280;9383;50.928;12.116;2022-11-04T05:25:22;97736.47;;;10.38;100.00
18509;BME280;9383;50.928;12.116;2022-11-04T05:27:48;97743.56;;;10.38;100.00
18509;BME280;9383;50.928;12.116;2022-11-04T05:30:15;97748.88;;;10.38;100.00
18509;BME280;9383;50.928;12.116;2022-11-04T05:32:41;97751.53;;;10.38;100.00
18509;BME280;9383;50.928;12.116;2022-11-04T05:35:08;97758.59;;;10.37;100.00
18509;BME280;9383;50.928;12.116;2022-11-04T05:37:34;97757.75;;;10.37;100.00
18509;BME280;9383;50.928;12.116;2022-11-04T05:40:01;97762.19;;;10.36;100.00
18509;BME280;9383;50.928;12.116;2022-11-04T05:42:27;97762.19;;;10.36;100.00
18509;BME280;9383;50.928;12.116;2022-11-04T05:44:54;97766.63;;;10.36;100.00
18509;BME280;9383;50.928;12.116;2022-11-04T05:47:21;97758.78;;;10.34;100.00
18509;BME280;9383;50.928;12.116;2022-11-04T05:49:47;97758.78;;;10.34;100.00
18509;BME280;9383;50.928;12.116;2022-11-04T05:52:14;97754.41;;;10.33;100.00
18509;BME280;9383;50.928;12.116;2022-11-04T05:54:40;97755.34;;;10.32;100.00
18509;BME280;9383;50.928;12.116;2022-11-04T05:57:08;97758.00;;;10.32;100.00
18509;BME280;9383;50.928;12.116;2022-11-04T05:59:36;97753.63;;;10.31;100.00
18509;BME280;9383;50.928;12.116;2022-11-04T06:02:03;97753.72;;;10.30;100.00
18509;BME280;9383;50.928;12.116;2022-11-04T06:04:29;97751.06;;;10.30;100.00
18509;BME280;9383;50.928;12.116;2022-11-04T06:06:56;97752.84;;;10.29;100.00
18509;BME280;9383;50.928;12.116;2022-11-04T06:09:23;97753.78;;;10.28;100.00
18509;BME280;9383;50.928;12.116;2022-11-04T06:12:12;97752.94;;;10.27;100.00
18509;BME280;9383;50.928;12.116;2022-11-04T06:14:41;97751.22;;;10.26;100.00
18509;BME280;9383;50.928;12.116;2022-11-04T06:17:15;97760.13;;;10.25;100.00
18509;BME280;9383;50.928;12.116;2022-11-04T06:19:42;97757.53;;;10.24;100.00
18509;BME280;9383;50.928;12.116;2022-11-04T06:22:13;97753.19;;;10.23;100.00
18509;BME280;9383;50.928;12.116;2022-11-04T06:24:40;97749.66;;;10.22;100.00
18509;BME280;9383;50.928;12.116;2022-11-04T06:27:08;97756.78;;;10.22;100.00
18509;BME280;9383;50.928;12.116;2022-11-04T06:29:35;97760.34;;;10.21;100.00
18509;BME280;9383;50.928;12.116;2022-11-04T06:32:09;97764.78;;;10.20;100.00
18509;BME280;9383;50.928;12.116;2022-11-04T06:34:36;97763.94;;;10.20;100.00
18509;BME280;9383;50.928;12.116;2022-11-04T06:37:02;97753.34;;;10.20;100.00
18509;BME280;9383;50.928;12.116;2022-11-04T06:39:29;97762.25;;;10.19;100.00
18509;BME280;9383;50.928;12.116;2022-11-04T06:41:56;97756.06;;;10.18;100.00
18509;BME280;9383;50.928;12.116;2022-11-04T06:44:23;97771.00;;;10.19;100.00
18509;BME280;9383;50.928;12.116;2022-11-04T06:46:49;97786.91;;;10.19;100.00
18509;BME280;9383;50.928;12.116;2022-11-04T06:49:18;97790.50;;;10.18;100.00
18509;BME280;9383;50.928;12.116;2022-11-04T06:51:46;97787.00;;;10.18;100.00
18509;BME280;9383;50.928;12.116;2022-11-04T06:54:13;97797.59;;;10.18;100.00
18509;BME280;9383;50.928;12.116;2022-11-04T06:56:40;97808.19;;;10.18;100.00
18509;BME280;9383;50.928;12.116;2022-11-04T06:59:08;97815.19;;;10.19;100.00
18509;BME280;9383;50.928;12.116;2022-11-04T07:01:37;97803.75;;;10.18;100.00
18509;BME280;9383;50.928;12.116;2022-11-04T07:04:04;97816.03;;;10.19;100.00
18509;BME280;9383;50.928;12.116;2022-11-04T07:06:31;97808.09;;;10.19;100.00
18509;BME280;9383;50.928;12.116;2022-11-04T07:08:59;97808.03;;;10.21;100.00
18509;BME280;9383;50.928;12.116;2022-11-04T07:11:27;97809.03;;;10.18;100.00
18509;BME280;9383;50.928;12.116;2022-11-04T07:13:54;97808.97;;;10.20;100.00
18509;BME280;9383;50.928;12.116;2022-11-04T07:16:21;97805.38;;;10.21;100.00
18509;BME280;9383;50.928;12.116;2022-11-04T07:18:48;97803.56;;;10.21;100.00
18509;BME280;9383;50.928;12.116;2022-11-04T07:21:17;97820.34;;;10.22;100.00
18509;BME280;9383;50.928;12.116;2022-11-04T07:23:43;97830.06;;;10.21;100.00
18509;BME280;9383;50.928;12.116;2022-11-04T07:26:10;97835.34;;;10.21;100.00
18509;BME280;9383;50.928;12.116;2022-11-04T07:28:37;97840.66;;;10.21;100.00
18509;BME280;9383;50.928;12.116;2022-11-04T07:31:05;97825.63;;;10.22;100.00
18509;BME280;9383;50.928;12.116;2022-11-04T07:33:33;97819.47;;;10.21;100.00
18509;BME280;9383;50.928;12.116;2022-11-04T07:36:10;97830.91;;;10.22;100.00
18509;BME280;9383;50.928;12.116;2022-11-04T07:38:38;97838.94;;;10.20;100.00
18509;BME280;9383;50.928;12.116;2022-11-04T07:41:04;97852.09;;;10.22;100.00
18509;BME280;9383;50.928;12.116;2022-11-04T07:43:31;97854.81;;;10.20;100.00
18509;BME280;9383;50.928;12.116;2022-11-04T07:46:06;97857.47;;;10.20;100.00
18509;BME280;9383;50.928;12.116;2022-11-04T07:48:34;97868.16;;;10.19;100.00
18509;BME280;9383;50.928;12.116;2022-11-04T07:51:02;97856.63;;;10.20;100.00
18509;BME280;9383;50.928;12.116;2022-11-04T07:53:30;97869.09;;;10.18;100.00
18509;BME280;9383;50.928;12.116;2022-11-04T07:55:56;97870.88;;;10.17;100.00
18509;BME280;9383;50.928;12.116;2022-11-04T07:58:24;97884.91;;;10.19;100.00
18509;BME280;9383;50.928;12.116;2022-11-04T08:00:56;97892.84;;;10.19;100.00
18509;BME280;9383;50.928;12.116;2022-11-04T08:03:23;97887.53;;;10.19;100.00
18509;BME280;9383;50.928;12.116;2022-11-04T08:05:57;97895.50;;;10.19;100.00
18509;BME280;9383;50.928;12.116;2022-11-04T08:08:24;97898.06;;;10.21;100.00
18509;BME280;9383;50.928;12.116;2022-11-04T08:10:53;97904.22;;;10.21;100.00
18509;BME280;9383;50.928;12.116;2022-11-04T08:13:19;97906.84;;;10.21;100.00
18509;BME280;9383;50.928;12.116;2022-11-04T08:15:46;97898.06;;;10.21;100.00
18509;BME280;9383;50.928;12.116;2022-11-04T08:18:12;97883.88;;;10.22;100.00
18509;BME280;9383;50.928;12.116;2022-11-04T08:20:39;97879.44;;;10.22;100.00
18509;BME280;9383;50.928;12.116;2022-11-04T08:23:05;97878.50;;;10.23;100.00
18509;BME280;9383;50.928;12.116;2022-11-04T08:25:34;97867.00;;;10.24;100.00
18509;BME280;9383;50.928;12.116;2022-11-04T08:28:01;97847.53;;;10.25;100.00
18509;BME280;9383;50.928;12.116;2022-11-04T08:30:27;97835.97;;;10.26;100.00
18509;BME280;9383;50.928;12.116;2022-11-04T08:32:54;97822.75;;;10.26;100.00
18509;BME280;9383;50.928;12.116;2022-11-04T08:35:20;97803.34;;;10.26;100.00
18509;BME280;9383;50.928;12.116;2022-11-04T08:37:47;97796.16;;;10.28;100.00
18509;BME280;9383;50.928;12.116;2022-11-04T08:40:13;97789.91;;;10.29;100.00
18509;BME280;9383;50.928;12.116;2022-11-04T08:42:40;97800.38;;;10.32;100.00
18509;BME280;9383;50.928;12.116;2022-11-04T08:45:07;97800.13;;;10.37;100.00
18509;BME280;9383;50.928;12.116;2022-11-04T08:47:33;97790.19;;;10.42;100.00
18509;BME280;9383;50.928;12.116;2022-11-04T08:50:00;97776.69;;;10.47;100.00
18509;BME280;9383;50.928;12.116;2022-11-04T08:52:26;97771.16;;;10.51;100.00
18509;BME280;9383;50.928;12.116;2022-11-04T08:54:54;97778.06;;;10.54;100.00
18509;BME280;9383;50.928;12.116;2022-11-04T08:57:20;97787.66;;;10.57;100.00
18509;BME280;9383;50.928;12.116;2022-11-04T08:59:47;97782.16;;;10.60;100.00
18509;BME280;9383;50.928;12.116;2022-11-04T09:02:14;97785.63;;;10.62;100.00
18509;BME280;9383;50.928;12.116;2022-11-04T09:04:41;97789.03;;;10.64;100.00
18509;BME280;9383;50.928;12.116;2022-11-04T09:07:08;97793.41;;;10.65;100.00
18509;BME280;9383;50.928;12.116;2022-11-04T09:09:34;97795.09;;;10.66;100.00
18509;BME280;9383;50.928;12.116;2022-11-04T09:12:02;97800.47;;;10.64;100.00
18509;BME280;9383;50.928;12.116;2022-11-04T09:14:28;97818.97;;;10.66;100.00
18509;BME280;9383;50.928;12.116;2022-11-04T09:16:55;97818.97;;;10.66;100.00
18509;BME280;9383;50.928;12.116;2022-11-04T09:19:21;97824.25;;;10.66;99.58
18509;BME280;9383;50.928;12.116;2022-11-04T09:21:48;97831.28;;;10.67;98.96
18509;BME280;9383;50.928;12.116;2022-11-04T09:24:14;97833.16;;;10.65;98.50
18509;BME280;9383;50.928;12.116;2022-11-04T09:26:41;97846.47;;;10.63;97.31
18509;BME280;9383;50.928;12.116;2022-11-04T09:29:09;97845.88;;;10.58;95.88
18509;BME280;9383;50.928;12.116;2022-11-04T09:31:36;97839.81;;;10.56;95.39
18509;BME280;9383;50.928;12.116;2022-11-04T09:34:03;97853.13;;;10.54;95.39
18509;BME280;9383;50.928;12.116;2022-11-04T09:36:29;97855.16;;;10.49;94.77
18509;BME280;9383;50.928;12.116;2022-11-04T09:38:56;97856.06;;;10.48;94.07
18509;BME280;9383;50.928;12.116;2022-11-04T09:41:46;97861.47;;;10.47;94.26
18509;BME280;9383;50.928;12.116;2022-11-04T09:47:08;97877.63;;;10.40;93.26
18509;BME280;9383;50.928;12.116;2022-11-04T09:49:41;97881.22;;;10.39;93.40
18509;BME280;9383;50.928;12.116;2022-11-04T09:52:23;97886.63;;;10.38;93.35
18509;BME280;9383;50.928;12.116;2022-11-04T09:55:02;97894.69;;;10.35;93.20
18509;BME280;9383;50.928;12.116;2022-11-04T09:57:32;97901.88;;;10.33;92.91
18509;BME280;9383;50.928;12.116;2022-11-04T09:59:59;97897.50;;;10.32;92.97
18509;BME280;9383;50.928;12.116;2022-11-04T10:02:44;97894.03;;;10.31;93.01
18509;BME280;9383;50.928;12.116;2022-11-04T10:05:29;97894.94;;;10.30;92.91
18509;BME280;9383;50.928;12.116;2022-11-04T10:08:23;97893.31;;;10.27;93.05
18509;BME280;9383;50.928;12.116;2022-11-04T10:11:07;97889.91;;;10.25;93.14
18509;BME280;9383;50.928;12.116;2022-11-04T10:19:53;97888.19;;;10.24;93.42
18509;BME280;9383;50.928;12.116;2022-11-04T10:22:30;97896.13;;;10.24;93.56
18509;BME280;9383;50.928;12.116;2022-11-04T10:25:09;97886.44;;;10.23;93.80
18509;BME280;9383;50.928;12.116;2022-11-04T10:27:42;97895.25;;;10.24;93.62
18509;BME280;9383;50.928;12.116;2022-11-04T10:30:23;97900.50;;;10.25;93.69
18509;BME280;9383;50.928;12.116;2022-11-04T10:33:09;97905.78;;;10.25;93.58
18509;BME280;9383;50.928;12.116;2022-11-04T10:35:52;97909.28;;;10.26;93.79
18509;BME280;9383;50.928;12.116;2022-11-04T10:38:45;97904.84;;;10.26;93.71
18509;BME280;9383;50.928;12.116;2022-11-04T10:41:24;97899.56;;;10.26;93.81
18509;BME280;9383;50.928;12.116;2022-11-04T10:43:57;97902.19;;;10.26;93.64
18509;BME280;9383;50.928;12.116;2022-11-04T10:52:08;97900.56;;;10.24;93.09
18509;BME280;9383;50.928;12.116;2022-11-04T10:54:41;97899.63;;;10.25;93.09
18509;BME280;9383;50.928;12.116;2022-11-04T10:57:09;97904.97;;;10.23;92.98
18509;BME280;9383;50.928;12.116;2022-11-04T10:59:52;97903.28;;;10.22;93.11
18509;BME280;9383;50.928;12.116;2022-11-04T11:07:49;97897.03;;;10.23;92.83
18509;BME280;9383;50.928;12.116;2022-11-04T11:10:28;97894.38;;;10.23;92.76
18509;BME280;9383;50.928;12.116;2022-11-04T11:12:58;97901.56;;;10.21;92.63
18509;BME280;9383;50.928;12.116;2022-11-04T11:15:36;97893.63;;;10.21;92.44
18509;BME280;9383;50.928;12.116;2022-11-04T11:20:36;97895.50;;;10.19;92.50
18509;BME280;9383;50.928;12.116;2022-11-04T11:23:04;97891.13;;;10.18;92.03
18509;BME280;9383;50.928;12.116;2022-11-04T11:25:37;97886.75;;;10.17;91.79
18509;BME280;9383;50.928;12.116;2022-11-04T11:28:19;97898.22;;;10.18;91.67
18509;BME280;9383;50.928;12.116;2022-11-04T11:35:51;97890.97;;;10.21;91.66
18509;BME280;9383;50.928;12.116;2022-11-04T11:38:22;97900.63;;;10.22;91.75
18509;BME280;9383;50.928;12.116;2022-11-04T11:40:50;97904.06;;;10.24;91.60
18509;BME280;9383;50.928;12.116;2022-11-04T11:43:25;97901.34;;;10.26;91.38
18509;BME280;9383;50.928;12.116;2022-11-04T11:45:52;97910.91;;;10.28;91.20
18509;BME280;9383;50.928;12.116;2022-11-04T11:48:50;97916.06;;;10.32;91.06
18509;BME280;9383;50.928;12.116;2022-11-04T11:51:46;97908.81;;;10.35;90.96
18509;BME280;9383;50.928;12.116;2022-11-04T11:54:22;97900.72;;;10.38;90.64
18509;BME280;9383;50.928;12.116;2022-11-04T11:56:54;97898.78;;;10.42;90.93
18509;BME280;9383;50.928;12.116;2022-11-04T12:05:09;97898.34;;;10.51;90.50
18509;BME280;9383;50.928;12.116;2022-11-04T12:10:26;97905.88;;;10.59;90.86
18509;BME280;9383;50.928;12.116;2022-11-04T12:21:26;97902.59;;;10.72;89.97
18509;BME280;9383;50.928;12.116;2022-11-04T12:24:20;97904.19;;;10.74;89.46
18509;BME280;9383;50.928;12.116;2022-11-04T12:27:00;97897.81;;;10.78;89.89
18509;BME280;9383;50.928;12.116;2022-11-04T12:30:02;97895.88;;;10.82;89.59
18509;BME280;9383;50.928;12.116;2022-11-04T12:32:43;97880.56;;;10.87;89.74
18509;BME280;9383;50.928;12.116;2022-11-04T12:35:23;97882.03;;;10.93;89.33
18509;BME280;9383;50.928;12.116;2022-11-04T12:49:13;97888.31;;;11.24;88.58
18509;BME280;9383;50.928;12.116;2022-11-04T12:52:01;97882.69;;;11.30;88.31
18509;BME280;9383;50.928;12.116;2022-11-04T12:57:12;97887.63;;;11.36;87.49
18509;BME280;9383;50.928;12.116;2022-11-04T13:02:34;97895.34;;;11.41;87.21
18509;BME280;9383;50.928;12.116;2022-11-04T13:13:11;97915.50;;;11.45;85.30
18509;BME280;9383;50.928;12.116;2022-11-04T13:15:51;97910.06;;;11.47;84.86
18509;BME280;9383;50.928;12.116;2022-11-04T13:18:20;97916.25;;;11.47;84.52
18509;BME280;9383;50.928;12.116;2022-11-04T13:21:00;97916.16;;;11.49;84.52
18509;BME280;9383;50.928;12.116;2022-11-04T13:23:38;97916.16;;;11.49;84.47
18509;BME280;9383;50.928;12.116;2022-11-04T13:26:14;97913.50;;;11.49;84.29
18509;BME280;9383;50.928;12.116;2022-11-04T13:28:42;97911.78;;;11.48;84.30
18509;BME280;9383;50.928;12.116;2022-11-04T13:31:13;97911.78;;;11.48;84.35
18509;BME280;9383;50.928;12.116;2022-11-04T13:34:08;97909.91;;;11.50;84.69
18509;BME280;9383;50.928;12.116;2022-11-04T13:37:04;97906.34;;;11.51;84.55
18509;BME280;9383;50.928;12.116;2022-11-04T13:39:30;97903.69;;;11.51;84.40
18509;BME280;9383;50.928;12.116;2022-11-04T13:44:42;97920.50;;;11.50;84.28
18509;BME280;9383;50.928;12.116;2022-11-04T13:47:26;97917.97;;;11.48;83.47
18509;BME280;9383;50.928;12.116;2022-11-04T13:49:55;97935.66;;;11.48;83.29
18509;BME280;9383;50.928;12.116;2022-11-04T13:52:25;97935.66;;;11.48;83.29
18509;BME280;9383;50.928;12.116;2022-11-04T13:55:04;97930.47;;;11.46;83.25
18509;BME280;9383;50.928;12.116;2022-11-04T13:57:54;97942.97;;;11.44;83.45
18509;BME280;9383;50.928;12.116;2022-11-04T14:00:30;97947.41;;;11.44;83.42
18509;BME280;9383;50.928;12.116;2022-11-04T14:02:59;97945.75;;;11.41;82.51
18509;BME280;9383;50.928;12.116;2022-11-04T14:08:16;97939.63;;;11.40;82.87
18509;BME280;9383;50.928;12.116;2022-11-04T14:18:36;97950.47;;;11.36;82.61
18509;BME280;9383;50.928;12.116;2022-11-04T14:21:20;97949.59;;;11.35;82.68
18509;BME280;9383;50.928;12.116;2022-11-04T14:24:11;97935.56;;;11.33;82.57
18509;BME280;9383;50.928;12.116;2022-11-04T14:26:43;97934.97;;;11.28;82.84
18509;BME280;9383;50.928;12.116;2022-11-04T14:29:23;97937.09;;;11.21;82.49
18509;BME280;9383;50.928;12.116;2022-11-04T14:31:52;97942.66;;;11.17;82.95
18509;BME280;9383;50.928;12.116;2022-11-04T14:34:32;97949.91;;;11.13;83.20
18509;BME280;9383;50.928;12.116;2022-11-04T14:37:03;97954.53;;;11.09;83.24
18509;BME280;9383;50.928;12.116;2022-11-04T14:39:37;97954.84;;;11.03;82.95
18509;BME280;9383;50.928;12.116;2022-11-04T14:42:07;97961.25;;;10.99;83.31
18509;BME280;9383;50.928;12.116;2022-11-04T14:47:24;97966.09;;;10.91;83.04
18509;BME280;9383;50.928;12.116;2022-11-04T14:50:00;97965.81;;;10.79;83.34
18509;BME280;9383;50.928;12.116;2022-11-04T14:55:29;97975.38;;;10.64;83.92
18509;BME280;9383;50.928;12.116;2022-11-04T14:58:12;97972.03;;;10.61;83.80
18509;BME280;9383;50.928;12.116;2022-11-04T15:03:35;97975.94;;;10.53;84.41
18509;BME280;9383;50.928;12.116;2022-11-04T15:06:07;97917.13;;;10.10;84.19
18509;BME280;9383;50.928;12.116;2022-11-04T15:13:57;97985.69;;;10.34;85.05
18509;BME280;9383;50.928;12.116;2022-11-04T15:16:29;97991.09;;;10.32;85.39
18509;BME280;9383;50.928;12.116;2022-11-04T15:18:58;97993.03;;;10.28;85.36
18509;BME280;9383;50.928;12.116;2022-11-04T15:21:25;97988.66;;;10.27;85.90
18509;BME280;9383;50.928;12.116;2022-11-04T15:23:53;97989.66;;;10.25;85.95
18509;BME280;9383;50.928;12.116;2022-11-04T15:26:29;97990.66;;;10.22;85.80
18509;BME280;9383;50.928;12.116;2022-11-04T15:28:58;97993.47;;;10.19;85.96
18509;BME280;9383;50.928;12.116;2022-11-04T15:31:27;97996.28;;;10.16;86.35
18509;BME280;9383;50.928;12.116;2022-11-04T15:34:00;97995.56;;;10.12;86.39